createdAt,value
2019-01-03T00:00:40.614Z,957.00
2019-01-03T00:01:40.606Z,957.02
2019-01-03T00:02:40.424Z,957.05
2019-01-03T00:03:40.296Z,957.07
2019-01-03T00:04:40.191Z,957.10
2019-01-03T00:05:40.086Z,957.02
2019-01-03T00:06:39.980Z,957.07
2019-01-03T00:07:39.891Z,957.10
2019-01-03T00:08:39.874Z,957.09
2019-01-03T00:09:39.664Z,957.08
2019-01-03T00:10:39.557Z,957.06
2019-01-03T00:11:39.469Z,957.07
2019-01-03T00:12:39.374Z,957.07
2019-01-03T00:13:39.238Z,957.08
2019-01-03T00:14:39.136Z,957.03
2019-01-03T00:15:39.130Z,957.12
2019-01-03T00:16:38.923Z,957.10
2019-01-03T00:17:38.836Z,957.07
2019-01-03T00:18:38.718Z,957.10
2019-01-03T00:19:38.609Z,957.12
2019-01-03T00:20:38.502Z,957.08
2019-01-03T00:21:38.397Z,957.10
2019-01-03T00:22:38.406Z,957.12
2019-01-03T00:23:38.184Z,957.11
2019-01-03T00:24:38.082Z,957.18
2019-01-03T00:25:37.975Z,957.14
2019-01-03T00:26:37.868Z,957.15
2019-01-03T00:27:37.782Z,957.17
2019-01-03T00:28:37.660Z,957.16
2019-01-03T00:29:37.676Z,957.21
2019-01-03T00:30:37.447Z,957.23
2019-01-03T00:31:37.340Z,957.23
2019-01-03T00:32:37.255Z,957.22
2019-01-03T00:33:37.130Z,957.24
2019-01-03T00:34:37.029Z,957.29
2019-01-03T00:35:36.919Z,957.33
2019-01-03T00:36:36.924Z,957.30
2019-01-03T00:37:36.725Z,957.30
2019-01-03T00:38:36.605Z,957.25
2019-01-03T00:39:36.500Z,957.26
2019-01-03T00:40:36.397Z,957.28
2019-01-03T00:41:36.287Z,957.36
2019-01-03T00:42:36.198Z,957.39
2019-01-03T00:43:36.177Z,957.39
2019-01-03T00:44:35.974Z,957.37
2019-01-03T00:45:35.874Z,957.33
2019-01-03T00:46:35.765Z,957.41
2019-01-03T00:47:35.692Z,957.45
2019-01-03T00:48:35.548Z,957.51
2019-01-03T00:49:35.444Z,957.50
2019-01-03T00:50:35.440Z,957.45
2019-01-03T00:51:35.236Z,957.56
2019-01-03T00:52:35.146Z,957.63
2019-01-03T00:53:35.023Z,957.54
2019-01-03T00:54:34.918Z,957.58
2019-01-03T00:55:34.813Z,957.56
2019-01-03T00:56:34.710Z,957.55
2019-01-03T00:57:34.620Z,957.56
2019-01-03T00:58:34.495Z,957.56
2019-01-03T00:59:34.390Z,957.52
2019-01-03T01:00:34.288Z,957.52
2019-01-03T01:01:34.184Z,957.52
2019-01-03T01:02:34.093Z,957.57
2019-01-03T01:03:33.970Z,957.54
2019-01-03T01:04:33.966Z,957.55
2019-01-03T01:05:34.328Z,957.59
2019-01-03T01:06:33.659Z,957.52
2019-01-03T01:07:33.554Z,957.58
2019-01-03T01:08:33.465Z,957.59
2019-01-03T01:09:33.346Z,957.57
2019-01-03T01:10:33.358Z,957.66
2019-01-03T01:11:33.129Z,957.59
2019-01-03T01:12:33.028Z,957.58
2019-01-03T01:13:32.936Z,957.56
2019-01-03T01:14:32.810Z,957.59
2019-01-03T01:15:32.709Z,957.68
2019-01-03T01:16:32.605Z,957.62
2019-01-03T01:17:32.495Z,957.65
2019-01-03T01:18:32.408Z,957.63
2019-01-03T01:19:32.284Z,957.40
2019-01-03T01:20:32.183Z,957.54
2019-01-03T01:21:32.078Z,957.53
2019-01-03T01:22:31.973Z,957.60
2019-01-03T01:23:31.898Z,957.67
2019-01-03T01:24:31.758Z,957.65
2019-01-03T01:25:31.656Z,957.65
2019-01-03T01:26:31.549Z,957.68
2019-01-03T01:27:31.444Z,957.65
2019-01-03T01:28:31.352Z,957.60
2019-01-03T01:29:31.232Z,957.64
2019-01-03T01:30:31.127Z,957.63
2019-01-03T01:31:31.023Z,957.62
2019-01-03T01:32:30.915Z,957.66
2019-01-03T01:33:30.829Z,957.60
2019-01-03T01:34:30.706Z,957.69
2019-01-03T01:35:30.603Z,957.75
2019-01-03T01:36:30.496Z,957.76
2019-01-03T01:37:30.389Z,957.72
2019-01-03T01:38:30.300Z,957.72
2019-01-03T01:39:30.181Z,957.76
2019-01-03T01:40:30.074Z,957.81
2019-01-03T01:41:29.970Z,957.75
2019-01-03T01:42:29.862Z,957.78
2019-01-03T01:43:29.771Z,957.81
2019-01-03T01:44:29.647Z,957.78
2019-01-03T01:45:29.542Z,957.82
2019-01-03T01:46:29.442Z,957.78
2019-01-03T01:47:29.335Z,957.84
2019-01-03T01:48:29.244Z,957.74
2019-01-03T01:49:29.123Z,957.77
2019-01-03T01:50:29.014Z,957.81
2019-01-03T01:51:28.914Z,957.90
2019-01-03T01:52:28.807Z,957.88
2019-01-03T01:53:28.720Z,957.91
2019-01-03T01:54:28.595Z,957.87
2019-01-03T01:55:28.490Z,957.91
2019-01-03T01:56:28.391Z,957.91
2019-01-03T01:57:28.281Z,957.95
2019-01-03T01:58:28.186Z,957.92
2019-01-03T01:59:28.070Z,957.98
2019-01-03T02:00:27.963Z,957.95
2019-01-03T02:01:27.855Z,957.97
2019-01-03T02:02:27.747Z,957.99
2019-01-03T02:03:27.661Z,958.01
2019-01-03T02:04:27.537Z,957.91
2019-01-03T02:05:27.431Z,957.96
2019-01-03T02:06:27.330Z,957.94
2019-01-03T02:07:27.221Z,957.93
2019-01-03T02:08:27.134Z,957.95
2019-01-03T02:09:27.009Z,957.95
2019-01-03T02:10:26.906Z,957.94
2019-01-03T02:11:26.801Z,957.97
2019-01-03T02:12:26.697Z,957.94
2019-01-03T02:13:26.605Z,957.93
2019-01-03T02:14:26.486Z,957.83
2019-01-03T02:15:26.375Z,957.93
2019-01-03T02:16:26.273Z,957.95
2019-01-03T02:17:26.178Z,957.94
2019-01-03T02:18:26.081Z,957.89
2019-01-03T02:19:25.953Z,958.00
2019-01-03T02:20:25.851Z,957.98
2019-01-03T02:21:25.742Z,958.00
2019-01-03T02:22:25.639Z,958.06
2019-01-03T02:23:25.550Z,958.04
2019-01-03T02:24:25.441Z,958.08
2019-01-03T02:25:25.322Z,958.10
2019-01-03T02:26:25.237Z,958.08
2019-01-03T02:27:25.112Z,958.07
2019-01-03T02:28:25.023Z,958.12
2019-01-03T02:29:24.900Z,958.12
2019-01-03T02:30:24.795Z,958.17
2019-01-03T02:31:24.690Z,958.10
2019-01-03T02:32:24.588Z,958.15
2019-01-03T02:33:24.501Z,958.13
2019-01-03T02:34:24.375Z,958.18
2019-01-03T02:35:24.267Z,958.10
2019-01-03T02:36:24.162Z,958.19
2019-01-03T02:37:24.058Z,958.16
2019-01-03T02:38:23.967Z,958.14
2019-01-03T02:39:23.849Z,958.07
2019-01-03T02:40:23.741Z,958.23
2019-01-03T02:41:23.636Z,958.23
2019-01-03T02:42:23.529Z,958.23
2019-01-03T02:43:23.444Z,958.22
2019-01-03T02:44:23.319Z,958.21
2019-01-03T02:45:23.212Z,958.16
2019-01-03T02:46:23.112Z,958.16
2019-01-03T02:47:23.009Z,958.19
2019-01-03T02:48:22.914Z,958.12
2019-01-03T02:49:22.798Z,958.15
2019-01-03T02:50:22.687Z,958.14
2019-01-03T02:51:22.585Z,958.11
2019-01-03T02:52:22.472Z,958.13
2019-01-03T02:53:22.388Z,958.13
2019-01-03T02:54:22.268Z,958.11
2019-01-03T02:55:22.172Z,958.05
2019-01-03T02:56:22.054Z,958.08
2019-01-03T02:57:21.946Z,958.06
2019-01-03T02:58:23.587Z,958.05
2019-01-03T02:59:21.753Z,958.01
2019-01-03T03:00:21.634Z,958.06
2019-01-03T03:01:21.526Z,958.03
2019-01-03T03:02:21.418Z,957.96
2019-01-03T03:03:21.702Z,957.94
2019-01-03T03:04:21.229Z,957.90
2019-01-03T03:05:21.111Z,957.88
2019-01-03T03:06:21.006Z,957.90
2019-01-03T03:07:20.891Z,957.88
2019-01-03T03:08:20.792Z,957.84
2019-01-03T03:09:20.723Z,957.83
2019-01-03T03:10:20.686Z,957.84
2019-01-03T03:11:20.519Z,957.88
2019-01-03T03:12:20.368Z,957.91
2019-01-03T03:13:20.267Z,957.92
2019-01-03T03:14:20.174Z,957.91
2019-01-03T03:15:20.048Z,957.90
2019-01-03T03:16:19.946Z,957.88
2019-01-03T03:17:19.942Z,957.89
2019-01-03T03:18:19.737Z,957.82
2019-01-03T03:19:19.645Z,957.80
2019-01-03T03:20:19.533Z,957.80
2019-01-03T03:21:19.420Z,957.83
2019-01-03T03:22:19.310Z,957.85
2019-01-03T03:23:19.209Z,957.85
2019-01-03T03:24:19.218Z,957.87
2019-01-03T03:25:18.996Z,957.89
2019-01-03T03:26:18.892Z,957.83
2019-01-03T03:27:18.788Z,957.80
2019-01-03T03:28:18.682Z,957.80
2019-01-03T03:29:18.589Z,957.85
2019-01-03T03:30:18.513Z,957.85
2019-01-03T03:31:18.468Z,957.92
2019-01-03T03:32:18.260Z,957.92
2019-01-03T03:33:18.156Z,957.96
2019-01-03T03:34:18.066Z,957.93
2019-01-03T03:35:17.940Z,957.94
2019-01-03T03:36:17.841Z,957.89
2019-01-03T03:37:17.731Z,957.94
2019-01-03T03:38:17.730Z,958.01
2019-01-03T03:39:17.537Z,957.92
2019-01-03T03:40:17.432Z,957.96
2019-01-03T03:41:17.313Z,957.95
2019-01-03T03:42:17.207Z,957.96
2019-01-03T03:43:17.102Z,957.97
2019-01-03T03:44:17.013Z,957.98
2019-01-03T03:45:16.993Z,957.95
2019-01-03T03:46:16.788Z,957.94
2019-01-03T03:47:16.683Z,957.98
2019-01-03T03:48:16.577Z,957.95
2019-01-03T03:49:16.491Z,957.97
2019-01-03T03:50:16.365Z,957.95
2019-01-03T03:51:16.261Z,957.95
2019-01-03T03:52:16.254Z,957.92
2019-01-03T03:53:16.051Z,957.90
2019-01-03T03:54:15.958Z,957.92
2019-01-03T03:55:15.838Z,957.96
2019-01-03T03:56:15.735Z,957.94
2019-01-03T03:57:15.626Z,957.94
2019-01-03T03:58:15.536Z,957.94
2019-01-03T03:59:15.546Z,957.99
2019-01-03T04:00:15.313Z,958.00
2019-01-03T04:01:15.212Z,958.01
2019-01-03T04:02:15.101Z,957.99
2019-01-03T04:03:15.011Z,957.99
2019-01-03T04:04:14.909Z,958.01
2019-01-03T04:05:14.789Z,958.01
2019-01-03T04:06:14.803Z,958.01
2019-01-03T04:07:14.577Z,958.02
2019-01-03T04:08:14.474Z,957.98
2019-01-03T04:09:14.386Z,958.01
2019-01-03T04:10:14.259Z,958.11
2019-01-03T04:11:14.155Z,958.10
2019-01-03T04:12:14.192Z,958.13
2019-01-03T04:13:13.945Z,958.05
2019-01-03T04:14:13.854Z,958.08
2019-01-03T04:15:13.750Z,958.03
2019-01-03T04:16:13.632Z,958.03
2019-01-03T04:17:13.531Z,958.10
2019-01-03T04:18:13.417Z,958.09
2019-01-03T04:19:13.337Z,958.10
2019-01-03T04:20:13.212Z,958.09
2019-01-03T04:21:13.107Z,958.08
2019-01-03T04:22:12.997Z,958.15
2019-01-03T04:23:12.893Z,958.22
2019-01-03T04:24:12.810Z,958.19
2019-01-03T04:25:12.683Z,958.15
2019-01-03T04:26:12.579Z,958.16
2019-01-03T04:27:12.479Z,958.19
2019-01-03T04:28:12.371Z,958.22
2019-01-03T04:29:12.286Z,958.17
2019-01-03T04:30:12.156Z,958.18
2019-01-03T04:31:12.051Z,958.20
2019-01-03T04:32:11.950Z,958.22
2019-01-03T04:33:11.861Z,958.16
2019-01-03T04:34:11.752Z,958.20
2019-01-03T04:35:11.632Z,958.21
2019-01-03T04:36:11.529Z,958.20
2019-01-03T04:37:11.421Z,958.20
2019-01-03T04:38:11.313Z,958.17
2019-01-03T04:39:11.228Z,958.15
2019-01-03T04:40:11.101Z,958.19
2019-01-03T04:41:11.003Z,958.14
2019-01-03T04:42:10.934Z,958.11
2019-01-03T04:43:10.789Z,958.12
2019-01-03T04:44:10.686Z,958.15
2019-01-03T04:45:10.592Z,958.15
2019-01-03T04:46:10.474Z,958.21
2019-01-03T04:47:10.369Z,958.16
2019-01-03T04:48:10.270Z,958.16
2019-01-03T04:49:10.165Z,958.18
2019-01-03T04:50:10.069Z,958.18
2019-01-03T04:51:09.949Z,958.13
2019-01-03T04:52:09.840Z,958.21
2019-01-03T04:53:09.738Z,958.15
2019-01-03T04:54:09.637Z,958.15
2019-01-03T04:55:09.543Z,958.12
2019-01-03T04:56:09.420Z,958.15
2019-01-03T04:57:09.320Z,958.18
2019-01-03T04:58:09.212Z,958.11
2019-01-03T04:59:09.154Z,958.11
2019-01-03T05:00:09.020Z,958.11
2019-01-03T05:01:08.898Z,958.03
2019-01-03T05:02:08.792Z,958.05
2019-01-03T05:03:08.685Z,958.05
2019-01-03T05:04:08.582Z,958.02
2019-01-03T05:05:08.491Z,958.06
2019-01-03T05:06:08.372Z,958.10
2019-01-03T05:07:08.263Z,958.10
2019-01-03T05:08:08.162Z,958.12
2019-01-03T05:09:08.054Z,958.14
2019-01-03T05:10:07.989Z,958.16
2019-01-03T05:11:07.845Z,958.15
2019-01-03T05:12:07.738Z,958.21
2019-01-03T05:13:07.631Z,958.23
2019-01-03T05:14:07.530Z,958.21
2019-01-03T05:15:07.439Z,958.23
2019-01-03T05:16:07.315Z,958.18
2019-01-03T05:17:07.210Z,958.21
2019-01-03T05:18:07.108Z,958.24
2019-01-03T05:19:07.003Z,958.22
2019-01-03T05:20:06.914Z,958.23
2019-01-03T05:21:06.791Z,958.27
2019-01-03T05:22:06.683Z,958.27
2019-01-03T05:23:06.581Z,958.29
2019-01-03T05:24:06.476Z,958.22
2019-01-03T05:25:06.385Z,958.27
2019-01-03T05:26:06.273Z,958.30
2019-01-03T05:27:06.162Z,958.30
2019-01-03T05:28:06.052Z,958.32
2019-01-03T05:29:05.947Z,958.39
2019-01-03T05:30:05.862Z,958.42
2019-01-03T05:31:05.740Z,958.44
2019-01-03T05:32:05.632Z,958.44
2019-01-03T05:33:05.529Z,958.42
2019-01-03T05:34:05.428Z,958.43
2019-01-03T05:35:05.334Z,958.42
2019-01-03T05:36:05.214Z,958.42
2019-01-03T05:37:05.110Z,958.45
2019-01-03T05:38:05.004Z,958.42
2019-01-03T05:39:04.900Z,958.46
2019-01-03T05:40:04.812Z,958.49
2019-01-03T05:41:05.199Z,958.40
2019-01-03T05:42:04.582Z,958.43
2019-01-03T05:43:04.478Z,958.42
2019-01-03T05:44:04.374Z,958.41
2019-01-03T05:45:04.282Z,958.44
2019-01-03T05:46:04.159Z,958.40
2019-01-03T05:47:04.056Z,958.46
2019-01-03T05:48:03.953Z,958.42
2019-01-03T05:49:03.851Z,958.37
2019-01-03T05:50:03.858Z,958.44
2019-01-03T05:51:03.637Z,958.45
2019-01-03T05:52:03.533Z,958.39
2019-01-03T05:53:03.428Z,958.42
2019-01-03T05:54:03.319Z,958.47
2019-01-03T05:55:03.249Z,958.42
2019-01-03T05:56:03.111Z,958.33
2019-01-03T05:57:03.106Z,958.32
2019-01-03T05:58:02.899Z,958.32
2019-01-03T05:59:02.797Z,958.41
2019-01-03T06:00:02.707Z,958.42
2019-01-03T06:01:02.585Z,958.47
2019-01-03T06:02:02.478Z,958.39
2019-01-03T06:03:02.372Z,958.44
2019-01-03T06:04:02.394Z,958.50
2019-01-03T06:05:02.179Z,958.47
2019-01-03T06:06:02.060Z,958.48
2019-01-03T06:07:01.951Z,958.50
2019-01-03T06:08:01.848Z,958.49
2019-01-03T06:09:01.746Z,958.48
2019-01-03T06:10:01.652Z,958.48
2019-01-03T06:11:01.632Z,958.48
2019-01-03T06:12:01.428Z,958.47
2019-01-03T06:13:01.321Z,958.49
2019-01-03T06:14:01.215Z,958.54
2019-01-03T06:15:01.132Z,958.54
2019-01-03T06:16:01.004Z,958.54
2019-01-03T06:17:00.902Z,958.58
2019-01-03T06:18:00.896Z,958.54
2019-01-03T06:19:00.693Z,958.52
2019-01-03T06:20:00.607Z,958.49
2019-01-03T06:21:00.482Z,958.48
2019-01-03T06:22:00.377Z,958.52
2019-01-03T06:23:00.268Z,958.48
2019-01-03T06:24:00.169Z,958.46
2019-01-03T06:25:00.186Z,958.46
2019-01-03T06:25:59.954Z,958.47
2019-01-03T06:26:59.849Z,958.42
2019-01-03T06:27:59.743Z,958.41
2019-01-03T06:28:59.644Z,958.40
2019-01-03T06:29:59.537Z,958.46
2019-01-03T06:30:59.444Z,958.41
2019-01-03T06:31:59.430Z,958.48
2019-01-03T06:32:59.217Z,958.42
2019-01-03T06:33:59.118Z,958.43
2019-01-03T06:34:59.011Z,958.43
2019-01-03T06:35:58.921Z,958.42
2019-01-03T06:36:58.802Z,958.44
2019-01-03T06:37:58.692Z,958.49
2019-01-03T06:38:58.689Z,958.48
2019-01-03T06:39:58.484Z,958.49
2019-01-03T06:40:58.394Z,958.54
2019-01-03T06:41:58.268Z,958.52
2019-01-03T06:42:58.167Z,958.46
2019-01-03T06:43:58.065Z,958.49
2019-01-03T06:44:57.960Z,958.47
2019-01-03T06:45:57.969Z,958.46
2019-01-03T06:46:57.744Z,958.50
2019-01-03T06:47:57.637Z,958.51
2019-01-03T06:48:57.539Z,958.55
2019-01-03T06:49:57.428Z,958.56
2019-01-03T06:50:57.340Z,958.65
2019-01-03T06:51:57.219Z,958.66
2019-01-03T06:52:57.219Z,958.65
2019-01-03T06:53:57.007Z,958.75
2019-01-03T06:54:56.903Z,958.75
2019-01-03T06:55:56.812Z,958.81
2019-01-03T06:56:56.691Z,958.79
2019-01-03T06:57:56.585Z,958.80
2019-01-03T06:58:56.482Z,958.78
2019-01-03T06:59:56.378Z,958.83
2019-01-03T07:00:56.289Z,958.88
2019-01-03T07:01:56.164Z,958.85
2019-01-03T07:02:56.062Z,958.85
2019-01-03T07:03:55.959Z,958.82
2019-01-03T07:04:55.848Z,958.87
2019-01-03T07:05:55.761Z,958.84
2019-01-03T07:06:55.637Z,958.84
2019-01-03T07:07:55.530Z,958.93
2019-01-03T07:08:55.427Z,958.92
2019-01-03T07:09:55.334Z,958.88
2019-01-03T07:10:55.235Z,958.95
2019-01-03T07:11:55.219Z,958.89
2019-01-03T07:12:55.010Z,958.92
2019-01-03T07:13:54.902Z,958.93
2019-01-03T07:14:54.795Z,958.92
2019-01-03T07:15:54.713Z,958.93
2019-01-03T07:16:54.594Z,958.91
2019-01-03T07:17:54.482Z,958.97
2019-01-03T07:18:54.376Z,958.94
2019-01-03T07:19:54.272Z,958.92
2019-01-03T07:20:54.182Z,958.94
2019-01-03T07:21:54.061Z,958.94
2019-01-03T07:22:53.956Z,958.94
2019-01-03T07:23:53.851Z,958.96
2019-01-03T07:24:53.742Z,958.97
2019-01-03T07:25:53.751Z,958.93
2019-01-03T07:26:53.532Z,958.94
2019-01-03T07:27:53.430Z,958.92
2019-01-03T07:28:53.325Z,958.95
2019-01-03T07:29:53.221Z,958.94
2019-01-03T07:30:53.127Z,958.98
2019-01-03T07:31:53.009Z,958.96
2019-01-03T07:32:53.010Z,958.97
2019-01-03T07:33:52.797Z,958.95
2019-01-03T07:34:52.693Z,958.98
2019-01-03T07:35:52.603Z,958.98
2019-01-03T07:36:52.486Z,959.01
2019-01-03T07:37:52.378Z,959.05
2019-01-03T07:38:52.396Z,959.03
2019-01-03T07:39:52.164Z,959.01
2019-01-03T07:40:52.078Z,959.04
2019-01-03T07:41:51.957Z,959.07
2019-01-03T07:42:51.854Z,959.06
2019-01-03T07:43:51.748Z,959.11
2019-01-03T07:44:51.643Z,959.14
2019-01-03T07:45:51.555Z,959.13
2019-01-03T07:46:51.436Z,959.15
2019-01-03T07:47:51.328Z,959.07
2019-01-03T07:48:51.219Z,959.13
2019-01-03T07:49:51.116Z,959.12
2019-01-03T07:50:51.028Z,959.11
2019-01-03T07:51:50.919Z,959.16
2019-01-03T07:52:50.801Z,959.14
2019-01-03T07:53:50.697Z,959.14
2019-01-03T07:54:50.598Z,959.11
2019-01-03T07:55:50.512Z,959.14
2019-01-03T07:56:50.382Z,959.11
2019-01-03T07:57:50.282Z,959.12
2019-01-03T07:58:50.171Z,959.13
2019-01-03T07:59:50.167Z,959.08
2019-01-03T08:00:49.980Z,959.08
2019-01-03T08:01:49.864Z,959.08
2019-01-03T08:02:49.752Z,959.09
2019-01-03T08:03:49.651Z,959.07
2019-01-03T08:04:49.547Z,959.10
2019-01-03T08:05:49.445Z,959.13
2019-01-03T08:06:49.349Z,959.12
2019-01-03T08:07:49.228Z,959.13
2019-01-03T08:08:49.126Z,959.09
2019-01-03T08:09:49.022Z,959.09
2019-01-03T08:10:48.930Z,959.10
2019-01-03T08:11:48.827Z,959.09
2019-01-03T08:12:48.711Z,959.18
2019-01-03T08:13:48.601Z,959.14
2019-01-03T08:14:48.498Z,959.14
2019-01-03T08:15:48.397Z,959.20
2019-01-03T08:16:48.307Z,959.24
2019-01-03T08:17:48.182Z,959.19
2019-01-03T08:18:48.077Z,959.20
2019-01-03T08:19:48.035Z,959.21
2019-01-03T08:20:47.871Z,959.19
2019-01-03T08:21:47.785Z,959.18
2019-01-03T08:22:47.660Z,959.18
2019-01-03T08:23:47.557Z,959.18
2019-01-03T08:24:47.455Z,959.27
2019-01-03T08:25:47.348Z,959.19
2019-01-03T08:26:47.261Z,959.14
2019-01-03T08:27:47.143Z,959.19
2019-01-03T08:28:47.042Z,959.30
2019-01-03T08:29:46.932Z,959.15
2019-01-03T08:30:46.838Z,959.21
2019-01-03T08:31:46.740Z,959.30
2019-01-03T08:32:46.621Z,959.26
2019-01-03T08:33:46.516Z,959.07
2019-01-03T08:34:46.517Z,959.11
2019-01-03T08:35:46.316Z,959.15
2019-01-03T08:36:46.223Z,959.17
2019-01-03T08:37:46.107Z,959.26
2019-01-03T08:38:46.004Z,959.21
2019-01-03T08:39:45.901Z,959.21
2019-01-03T08:40:45.919Z,959.22
2019-01-03T08:41:45.713Z,959.24
2019-01-03T08:42:45.606Z,959.24
2019-01-03T08:43:45.490Z,959.32
2019-01-03T08:44:45.383Z,959.31
2019-01-03T08:45:45.281Z,959.24
2019-01-03T08:46:45.192Z,959.33
2019-01-03T08:47:45.073Z,959.50
2019-01-03T08:48:44.973Z,959.60
2019-01-03T08:49:44.870Z,959.57
2019-01-03T08:50:44.766Z,959.55
2019-01-03T08:51:44.681Z,959.60
2019-01-03T08:52:44.563Z,959.64
2019-01-03T08:53:44.460Z,959.63
2019-01-03T08:54:44.361Z,959.51
2019-01-03T08:55:44.255Z,959.67
2019-01-03T08:56:44.172Z,959.70
2019-01-03T08:57:44.049Z,959.63
2019-01-03T08:58:43.994Z,959.69
2019-01-03T08:59:43.847Z,959.64
2019-01-03T09:00:43.751Z,959.67
2019-01-03T09:01:43.773Z,959.66
2019-01-03T09:02:43.546Z,959.68
2019-01-03T09:03:43.444Z,959.70
2019-01-03T09:04:43.362Z,959.65
2019-01-03T09:05:43.242Z,959.63
2019-01-03T09:06:43.154Z,959.61
2019-01-03T09:07:43.145Z,959.57
2019-01-03T09:08:42.940Z,959.54
2019-01-03T09:09:42.840Z,959.54
2019-01-03T09:10:42.739Z,959.53
2019-01-03T09:11:42.663Z,959.46
2019-01-03T09:12:42.541Z,959.54
2019-01-03T09:13:42.462Z,959.51
2019-01-03T09:14:42.337Z,959.52
2019-01-03T09:15:42.238Z,959.52
2019-01-03T09:16:42.160Z,959.51
2019-01-03T09:17:42.042Z,959.50
2019-01-03T09:18:41.945Z,959.48
2019-01-03T09:19:41.842Z,959.47
2019-01-03T09:20:41.742Z,959.47
2019-01-03T09:21:41.772Z,959.51
2019-01-03T09:22:41.559Z,959.50
2019-01-03T09:23:41.447Z,959.48
2019-01-03T09:24:41.347Z,959.48
2019-01-03T09:25:41.247Z,959.48
2019-01-03T09:26:41.161Z,959.49
2019-01-03T09:27:41.046Z,959.54
2019-01-03T09:28:41.054Z,959.54
2019-01-03T09:29:40.847Z,959.47
2019-01-03T09:30:40.753Z,959.52
2019-01-03T09:31:40.671Z,959.51
2019-01-03T09:32:40.603Z,959.48
2019-01-03T09:33:40.456Z,959.53
2019-01-03T09:34:40.354Z,959.57
2019-01-03T09:35:40.262Z,959.50
2019-01-03T09:36:40.175Z,959.63
2019-01-03T09:37:40.056Z,959.63
2019-01-03T09:38:39.986Z,959.67
2019-01-03T09:39:39.865Z,959.72
2019-01-03T09:40:39.761Z,959.75
2019-01-03T09:41:39.680Z,959.74
2019-01-03T09:42:39.567Z,959.75
2019-01-03T09:43:39.464Z,959.77
2019-01-03T09:44:39.375Z,959.75
2019-01-03T09:45:44.304Z,959.72
2019-01-03T09:46:39.196Z,959.67
2019-01-03T09:47:39.075Z,959.71
2019-01-03T09:48:38.980Z,959.68
2019-01-03T09:49:38.881Z,959.73
2019-01-03T09:50:38.783Z,959.71
2019-01-03T09:51:38.700Z,959.71
2019-01-03T09:52:38.588Z,959.69
2019-01-03T09:53:38.491Z,959.65
2019-01-03T09:54:38.394Z,959.56
2019-01-03T09:55:38.292Z,959.56
2019-01-03T09:56:38.215Z,959.55
2019-01-03T09:57:38.097Z,959.62
2019-01-03T09:58:38.002Z,959.71
2019-01-03T09:59:37.904Z,959.69
2019-01-03T10:00:37.822Z,959.72
2019-01-03T10:01:37.710Z,959.70
2019-01-03T10:02:37.625Z,959.74
2019-01-03T10:03:37.515Z,959.69
2019-01-03T10:04:37.413Z,959.75
2019-01-03T10:05:37.318Z,959.65
2019-01-03T10:06:37.225Z,959.60
2019-01-03T10:07:37.144Z,959.52
2019-01-03T10:08:37.023Z,959.46
2019-01-03T10:09:36.929Z,959.42
2019-01-03T10:10:36.827Z,959.39
2019-01-03T10:11:36.737Z,959.36
2019-01-03T10:12:36.651Z,959.38
2019-01-03T10:13:36.533Z,959.36
2019-01-03T10:14:36.436Z,959.38
2019-01-03T10:15:36.339Z,959.33
2019-01-03T10:16:36.247Z,959.33
2019-01-03T10:17:36.160Z,959.34
2019-01-03T10:18:36.046Z,959.25
2019-01-03T10:19:35.942Z,959.15
2019-01-03T10:20:35.846Z,959.20
2019-01-03T10:21:35.750Z,959.19
2019-01-03T10:22:35.672Z,959.14
2019-01-03T10:23:35.544Z,959.18
2019-01-03T10:24:35.445Z,959.11
2019-01-03T10:25:35.346Z,959.05
2019-01-03T10:26:35.244Z,959.07
2019-01-03T10:27:35.159Z,958.95
2019-01-03T10:28:35.042Z,958.93
2019-01-03T10:29:34.941Z,958.91
2019-01-03T10:30:34.954Z,958.92
2019-01-03T10:31:34.740Z,958.92
2019-01-03T10:32:34.656Z,958.89
2019-01-03T10:33:34.536Z,958.87
2019-01-03T10:34:34.433Z,958.90
2019-01-03T10:35:34.332Z,958.85
2019-01-03T10:36:34.234Z,958.84
2019-01-03T10:37:34.149Z,958.83
2019-01-03T10:38:34.033Z,958.81
2019-01-03T10:39:33.929Z,958.76
2019-01-03T10:40:33.830Z,958.70
2019-01-03T10:41:33.725Z,958.64
2019-01-03T10:42:33.645Z,958.56
2019-01-03T10:43:33.527Z,958.55
2019-01-03T10:44:33.529Z,958.56
2019-01-03T10:45:33.325Z,958.55
2019-01-03T10:46:33.225Z,958.54
2019-01-03T10:47:33.140Z,958.54
2019-01-03T10:48:33.021Z,958.53
2019-01-03T10:49:32.922Z,958.55
2019-01-03T10:50:32.827Z,958.57
2019-01-03T10:51:32.825Z,958.55
2019-01-03T10:52:32.634Z,958.57
2019-01-03T10:53:32.513Z,958.53
2019-01-03T10:54:32.412Z,958.51
2019-01-03T10:55:32.315Z,958.53
2019-01-03T10:56:32.218Z,958.44
2019-01-03T10:57:32.128Z,958.49
2019-01-03T10:58:32.120Z,958.47
2019-01-03T10:59:31.916Z,958.44
2019-01-03T11:00:31.822Z,958.45
2019-01-03T11:01:31.720Z,958.55
2019-01-03T11:02:31.636Z,958.56
2019-01-03T11:03:31.525Z,958.66
2019-01-03T11:04:31.427Z,958.68
2019-01-03T11:05:31.427Z,958.70
2019-01-03T11:06:31.226Z,958.60
2019-01-03T11:07:31.145Z,958.67
2019-01-03T11:08:31.036Z,958.66
2019-01-03T11:09:30.947Z,958.64
2019-01-03T11:10:30.839Z,958.68
2019-01-03T11:11:30.739Z,958.67
2019-01-03T11:12:30.655Z,958.72
2019-01-03T11:13:30.542Z,958.73
2019-01-03T11:14:30.447Z,958.70
2019-01-03T11:15:30.351Z,958.67
2019-01-03T11:16:30.250Z,958.45
2019-01-03T11:17:30.169Z,958.48
2019-01-03T11:18:30.156Z,958.42
2019-01-03T11:19:29.961Z,958.48
2019-01-03T11:20:29.861Z,958.48
2019-01-03T11:21:29.765Z,958.36
2019-01-03T11:22:29.682Z,958.31
2019-01-03T11:23:29.573Z,958.28
2019-01-03T11:24:29.471Z,958.34
2019-01-03T11:25:29.476Z,958.29
2019-01-03T11:26:29.272Z,958.29
2019-01-03T11:27:29.190Z,958.26
2019-01-03T11:28:29.076Z,958.26
2019-01-03T11:29:28.981Z,958.11
2019-01-03T11:30:28.882Z,958.20
2019-01-03T11:31:28.777Z,958.14
2019-01-03T11:32:28.698Z,958.17
2019-01-03T11:33:28.579Z,958.09
2019-01-03T11:34:28.476Z,958.10
2019-01-03T11:35:28.379Z,958.11
2019-01-03T11:36:28.286Z,958.08
2019-01-03T11:37:28.190Z,958.05
2019-01-03T11:38:28.078Z,958.12
2019-01-03T11:39:27.981Z,958.12
2019-01-03T11:40:27.875Z,958.06
2019-01-03T11:41:27.772Z,958.05
2019-01-03T11:42:27.685Z,958.02
2019-01-03T11:43:27.570Z,957.95
2019-01-03T11:44:27.469Z,957.95
2019-01-03T11:45:27.468Z,957.99
2019-01-03T11:46:27.267Z,958.03
2019-01-03T11:47:27.186Z,958.08
2019-01-03T11:48:27.061Z,958.09
2019-01-03T11:49:26.967Z,958.21
2019-01-03T11:50:26.861Z,958.21
2019-01-03T11:51:26.757Z,958.15
2019-01-03T11:52:26.759Z,958.07
2019-01-03T11:53:26.570Z,958.01
2019-01-03T11:54:26.454Z,957.98
2019-01-03T11:55:26.356Z,957.96
2019-01-03T11:56:26.255Z,957.87
2019-01-03T11:57:26.144Z,957.90
2019-01-03T11:58:26.170Z,957.90
2019-01-03T11:59:25.941Z,957.90
2019-01-03T12:00:25.843Z,957.86
2019-01-03T12:01:25.740Z,957.96
2019-01-03T12:02:25.885Z,957.80
2019-01-03T12:03:25.551Z,957.90
2019-01-03T12:04:25.442Z,957.94
2019-01-03T12:05:25.331Z,957.95
2019-01-03T12:06:25.226Z,957.99
2019-01-03T12:07:25.129Z,958.04
2019-01-03T12:08:25.038Z,958.02
2019-01-03T12:09:24.917Z,957.97
2019-01-03T12:10:24.819Z,958.04
2019-01-03T12:11:24.717Z,958.05
2019-01-03T12:12:24.618Z,958.06
2019-01-03T12:13:24.524Z,958.07
2019-01-03T12:14:24.412Z,957.91
2019-01-03T12:15:24.307Z,957.85
2019-01-03T12:16:24.202Z,957.96
2019-01-03T12:17:24.102Z,957.90
2019-01-03T12:18:24.015Z,957.98
2019-01-03T12:19:23.997Z,957.93
2019-01-03T12:20:23.795Z,957.99
2019-01-03T12:21:23.688Z,958.06
2019-01-03T12:22:23.585Z,958.07
2019-01-03T12:23:23.501Z,958.00
2019-01-03T12:24:23.384Z,958.08
2019-01-03T12:25:23.301Z,957.99
2019-01-03T12:26:23.176Z,958.11
2019-01-03T12:27:23.081Z,958.10